Carson Sink, Nevada Weather observations

Data are for observation ending at time listed.
 Day   Time    Ave.   Ave.  Ave.  Vector   Max.   Stn.    Total    Solar   Ave.  
  of    of     Air    Rel.  Wind   Wind    Wind   Baro.  Precip.   Rad.    Soil  
Year   Day     Temp.  Hum.  Speed  Dir.    Gust   Pres.                    Temp. 
2014   (PST)    F      %     mph   deg.    mph     mb.     in.     W/m2     F   
------------------------------------------------------------------------------
 353    0:00   32.2    74    1.4    59      2.9   885.1    0.00       0     41.0
 353    0:10   32.3    74    3.6   313      5.3   885.4    0.00       0     41.0
 353    0:20   31.8    73    3.0   305      5.0   885.4    0.00       0     40.9
 353    0:30   32.0    74    1.9   283      3.4   885.2    0.00       0     40.8
 353    0:40   32.3    74    2.2   175      3.3   885.1    0.00       0     40.8
 353    0:50   32.5    74    1.9   104      2.9   884.9    0.00       0     40.7
 353    1:00   32.7    74    0.8   257      1.6   884.9    0.00       0     40.7
 353    1:10   32.9    74    2.1   128      4.4   885.0    0.00       0     40.6
 353    1:20   32.6    73    5.8   106      8.8   884.9    0.00       0     40.6
 353    1:30   31.9    73    2.8   111      6.5   885.0    0.00       0     40.5
 353    1:40   32.2    74    0.9   136      1.9   885.0    0.00       0     40.5
 353    1:50   32.4    73    3.0   318      3.9   885.0    0.00       0     40.4
 353    2:00   32.4    73    3.2   314      3.7   885.0    0.00       0     40.4
 353    2:10   31.8    73    1.8   306      2.7   885.1    0.00       0     40.3
 353    2:20   32.0    73    2.0   336      2.7   885.1    0.00       0     40.3
 353    2:30   31.9    73    2.4   327      5.6   885.0    0.00       0     40.2
 353    2:40   31.7    73    4.1   324      6.1   885.3    0.00       0     40.2
 353    2:50   31.2    74    4.6   315      5.9   885.4    0.00       0     40.2
 353    3:00   31.6    74    3.8    32      5.2   885.1    0.00       0     40.1
 353    3:10   31.9    74    4.5   108      7.9   885.1    0.00       0     40.1
 353    3:20   32.1    74    3.6    98      4.7   885.1    0.00       0     40.1
 353    3:30   32.5    74    1.8   107      3.3   885.1    0.00       0     40.0
 353    3:40   32.6    74    0.5   272      1.2   885.0    0.00       0     40.0
 353    3:50   32.5    74    2.6   320      3.7   885.1    0.00       0     40.0
 353    4:00   32.1    74    4.0   334      4.6   885.2    0.00       0     39.9
 353    4:10   32.2    74    2.3   329      3.4   885.2    0.00       0     39.9
 353    4:20   32.5    74    2.0    10      2.6   885.1    0.00       0     39.9
 353    4:30   32.5    74    3.2    15      4.2   885.1    0.00       0     39.8
 353    4:40   32.7    74    2.8    10      3.5   885.1    0.00       0     39.8
 353    4:50   32.7    74    3.2    44      4.9   885.0    0.00       0     39.8
 353    5:00   32.2    74    6.2    88      7.9   884.8    0.00       0     39.8
 353    5:10   32.1    74    5.2    97      9.5   884.9    0.00       0     39.7
 353    5:20   32.1    74    4.3    84      5.0   884.9    0.00       0     39.7
 353    5:30   31.8    74    3.6    74      4.6   884.7    0.00       0     39.7
 353    5:40   31.9    75    3.0    56      3.4   884.6    0.00       0     39.6
 353    5:50   33.6    74    4.4    50      5.4   884.6    0.00       0     39.6
 353    6:00   33.1    74    3.6    59      5.0   884.5    0.00       0     39.5
 353    6:10   33.1    73    3.5    22      5.3   884.5    0.00       0     39.4
 353    6:20   30.0    73    4.5    11      5.3   884.5    0.00       0     39.4
 353    6:30   28.6    74    4.0   346      4.8   884.5    0.00       0     39.3
 353    6:40   28.0    75    3.3   332      4.3   884.5    0.00       0     39.2
 353    6:50   27.6    75    4.3   322      5.3   884.6    0.00       0     39.1
 353    7:00   27.3    75    1.2   334      2.7   884.6    0.00       0     39.1
 353    7:10   27.1    75    0.5    36      1.6   884.5    0.00       1     38.9
 353    7:20   28.1    76    3.0   353      4.0   884.5    0.00       8     38.9
 353    7:30   28.5    75    3.4   337      4.2   884.6    0.00      22     38.8
 353    7:40   28.0    75    4.2   319      5.0   884.8    0.00      54     38.7
 353    7:50   28.4    75    3.2   347      4.3   884.7    0.00      92     38.6
 353    8:00   28.8    74    3.9    38      6.4   884.7    0.00     130     38.5
 353    8:10   30.3    75    3.9    31      5.1   884.6    0.00     105     38.5
 353    8:20   31.2    75    3.9    43      4.9   884.6    0.00      76     38.4
 353    8:30   31.6    75    2.8    60      3.8   884.6    0.00      88     38.4
 353    8:40   32.4    75    3.5    60      4.6   884.7    0.00     113     38.3
 353    8:50   33.1    74    4.5    26      5.4   884.9    0.00     124     38.3
 353    9:00   33.8    74    3.6    40      4.8   884.8    0.00     113     38.3
 353    9:10   34.4    74    3.7    27      4.4   884.9    0.00     106     38.3
 353    9:20   35.1    74    1.5    11      3.7   885.0    0.00      88     38.4
 353    9:30   35.6    74    0.8   321      2.0   885.2    0.00      86     38.4
 353    9:40   35.8    74    2.4   282      3.0   885.3    0.00      95     38.5
 353    9:50   36.1    73    4.4   278      5.8   885.5    0.00     103     38.5
 353   10:00   37.2    72    5.0   274      6.4   885.5    0.00     103     38.6
 353   10:10   38.3    69    7.1   263      9.6   885.5    0.00      95     38.7
 353   10:20   38.3    69    5.5   249      8.0   885.4    0.00     122     38.8
 353   10:30   38.7    69    4.6   218      6.4   885.4    0.00     126     38.8
 353   10:40   39.4    68    5.8   206      8.0   885.4    0.00     136     39.0
 353   10:50   39.5    68    4.4   186      6.1   885.3    0.00     155     39.0
 353   11:00   39.5    68    3.3   189      4.8   885.2    0.00     178     39.2
 353   11:10   39.8    67    3.1   208      5.6   885.1    0.00     183     39.3
 353   11:20   39.6    67    4.3   225      7.0   885.0    0.00     158     39.4
 353   11:30   39.8    67    3.7   235      5.6   884.8    0.00     128     39.5
 353   11:40   39.7    67    3.6   249      5.6   884.7    0.00     111     39.7
 353   11:50   40.1    67    3.9   268      6.4   884.5    0.00     131     39.8
 353   12:00   40.4    66    4.9   272      6.6   884.5    0.00     129     40.0
 353   12:10   41.1    65    7.3   288      9.6   884.4    0.00     135     40.1
 353   12:20   41.7    63    7.1   284      9.3   884.4    0.00     144     40.2

Return to Carson Sink graphs page.


Western Regional Climate Center,wrcc@dri.edu